Time;durP1;ratioP1;P1;durP2;ratioP2;P2;SDS_P1;SDS_P2;PMS_P1;PMS_P2;Temp;Humidity;BMP_temperature;BMP_pressure;BME280_temperature;BME280_humidity;BME280_pressure;Samples;Min_cycle;Max_cycle;Signal;HPM_P1;HPM_P2
2022/01/24 00:01:53;;;;;;;58.50;26.57;;;-1.90;99.90;;;;;;5052867;28;20074;-73
2022/01/24 00:04:18;;;;;;;52.17;25.73;;;-1.90;99.90;;;;;;5051607;28;20037;-74
2022/01/24 00:06:44;;;;;;;52.57;26.67;;;-1.90;99.90;;;;;;5051070;28;20033;-74
2022/01/24 00:09:11;;;;;;;48.13;25.37;;;-1.90;99.90;;;;;;5052730;28;20485;-74
2022/01/24 00:17:13;;;;;;;46.75;23.35;;;-1.90;99.90;;;;;;5052757;28;20059;-74
2022/01/24 00:27:51;;;;;;;48.93;26.03;;;-2.00;99.90;;;;;;5052439;28;20147;-73
2022/01/24 00:30:18;;;;;;;52.13;26.77;;;-2.00;99.90;;;;;;5051053;28;20021;-74
2022/01/24 00:32:44;;;;;;;55.03;26.23;;;-2.00;99.90;;;;;;5051232;28;20017;-74
2022/01/24 00:35:10;;;;;;;52.47;27.17;;;-2.00;99.90;;;;;;5051433;28;20025;-75
2022/01/24 00:37:36;;;;;;;54.77;27.70;;;-2.00;99.90;;;;;;5052845;28;20040;-73
2022/01/24 00:40:02;;;;;;;55.63;26.87;;;-2.00;99.90;;;;;;5052229;28;20378;-74
2022/01/24 00:42:38;;;;;;;61.43;29.23;;;-2.00;99.90;;;;;;5052511;28;20029;-75
2022/01/24 00:45:11;;;;;;;64.57;29.27;;;-2.10;99.90;;;;;;5054152;28;20076;-74
2022/01/24 00:47:50;;;;;;;68.33;33.37;;;-2.10;99.90;;;;;;5056127;28;20016;-75
2022/01/24 00:55:39;;;;;;;49.93;25.20;;;-2.10;99.90;;;;;;5056202;28;20063;-74
2022/01/24 00:58:05;;;;;;;46.80;25.73;;;-2.10;99.90;;;;;;5055883;28;20037;-74
2022/01/24 01:00:30;;;;;;;52.40;26.63;;;-2.10;99.90;;;;;;5055779;28;20444;-74
2022/01/24 01:02:56;;;;;;;47.30;24.43;;;-2.10;99.90;;;;;;5055726;28;20112;-74
2022/01/24 01:18:46;;;;;;;46.33;23.88;;;-2.20;99.90;;;;;;5056001;28;20124;-74
2022/01/24 01:21:14;;;;;;;49.30;24.77;;;-2.20;99.90;;;;;;5054186;28;20111;-74
2022/01/24 01:23:50;;;;;;;44.43;22.60;;;-2.20;99.90;;;;;;5055723;28;20028;-74
2022/01/24 01:26:26;;;;;;;50.83;25.70;;;-2.20;99.90;;;;;;5055531;28;20025;-74
2022/01/24 01:28:58;;;;;;;48.60;24.83;;;-2.20;99.90;;;;;;5054029;28;20078;-73
2022/01/24 01:31:38;;;;;;;43.90;23.73;;;-2.20;99.90;;;;;;5055695;28;20397;-74
2022/01/24 01:55:26;;;;;;;50.85;25.60;;;-2.30;99.90;;;;;;5054683;28;20393;-74
2022/01/24 01:57:51;;;;;;;44.87;22.70;;;-2.40;99.90;;;;;;5053485;28;20025;-74
2022/01/24 02:00:17;;;;;;;48.43;24.20;;;-2.40;99.90;;;;;;5054807;28;20155;-74
2022/01/24 02:02:43;;;;;;;46.27;24.07;;;-2.40;99.90;;;;;;5054861;28;20029;-73
2022/01/24 02:05:09;;;;;;;43.63;22.03;;;-2.40;99.90;;;;;;5054625;28;20025;-73
2022/01/24 02:07:48;;;;;;;43.53;24.30;;;-2.40;99.90;;;;;;5055010;28;20466;-73
2022/01/24 02:10:14;;;;;;;40.87;22.63;;;-2.40;99.90;;;;;;5055090;28;20477;-73
2022/01/24 02:12:40;;;;;;;42.57;22.47;;;-2.40;99.90;;;;;;5053307;28;20033;-74
2022/01/24 02:15:06;;;;;;;43.17;22.23;;;-2.40;99.90;;;;;;5054529;28;20040;-74
2022/01/24 02:17:49;;;;;;;38.33;20.77;;;-2.40;99.90;;;;;;5053238;28;20120;-74
2022/01/24 02:23:02;;;;;;;38.47;21.97;;;-2.40;99.90;;;;;;5054363;28;20052;-75
2022/01/24 02:25:30;;;;;;;48.67;24.40;;;-2.40;99.90;;;;;;5054144;28;20041;-75
2022/01/24 02:28:00;;;;;;;46.90;23.53;;;-2.40;99.90;;;;;;5054515;28;20370;-75
2022/01/24 02:31:35;;;;;;;44.57;23.37;;;-2.40;99.90;;;;;;5054481;28;20029;-73
2022/01/24 02:33:12;;;;;;;50.47;24.00;;;-2.50;99.90;;;;;;5053641;28;20033;-73
2022/01/24 02:35:38;;;;;;;52.80;25.33;;;-2.50;99.90;;;;;;5054563;28;20043;-73
2022/01/24 02:38:13;;;;;;;47.33;23.17;;;-2.50;99.90;;;;;;5054038;28;20029;-74
2022/01/24 02:40:39;;;;;;;50.55;24.42;;;-2.50;99.90;;;;;;5054083;28;20031;-74
2022/01/24 02:48:46;;;;;;;46.20;24.07;;;-2.50;99.90;;;;;;5052984;28;20091;-74
2022/01/24 02:51:34;;;;;;;43.67;22.37;;;-2.50;99.90;;;;;;5054272;28;20048;-73
2022/01/24 02:54:00;;;;;;;46.37;24.30;;;-2.50;99.90;;;;;;5053699;28;20406;-73
2022/01/24 02:56:26;;;;;;;46.43;24.30;;;-2.50;99.90;;;;;;5052568;28;20114;-74
2022/01/24 02:58:51;;;;;;;39.63;22.40;;;-2.50;99.90;;;;;;5053829;28;20025;-74
2022/01/24 03:01:17;;;;;;;46.13;23.53;;;-2.60;99.90;;;;;;5053933;28;20438;-74
2022/01/24 03:03:43;;;;;;;47.87;22.93;;;-2.60;99.90;;;;;;5053662;28;20440;-74
2022/01/24 03:06:09;;;;;;;45.70;23.00;;;-2.70;99.90;;;;;;5053519;28;20029;-74
2022/01/24 03:08:37;;;;;;;48.40;24.10;;;-2.70;99.90;;;;;;5054109;28;20029;-74
2022/01/24 03:11:03;;;;;;;43.60;21.90;;;-2.70;99.90;;;;;;5052324;28;20029;-73
2022/01/24 03:15:56;;;;;;;38.60;20.10;;;-2.70;99.90;;;;;;5053702;28;20111;-74
2022/01/24 03:18:23;;;;;;;45.00;22.87;;;-2.70;99.90;;;;;;5053542;28;20099;-74
2022/01/24 03:20:49;;;;;;;40.90;21.73;;;-2.70;99.90;;;;;;5054208;28;20048;-74
2022/01/24 03:23:17;;;;;;;38.33;20.83;;;-2.70;99.90;;;;;;5053343;28;20035;-74
2022/01/24 03:25:43;;;;;;;41.47;22.40;;;-2.70;99.90;;;;;;5053439;28;20441;-74
2022/01/24 03:28:09;;;;;;;46.00;22.70;;;-2.70;99.90;;;;;;5053285;28;20029;-74
2022/01/24 03:30:37;;;;;;;40.93;22.00;;;-2.70;99.90;;;;;;5053524;28;20036;-74
2022/01/24 03:33:03;;;;;;;41.87;21.77;;;-2.70;99.90;;;;;;5053118;28;20110;-74
2022/01/24 03:35:29;;;;;;;42.67;22.07;;;-2.70;99.90;;;;;;5051202;28;20048;-83
2022/01/24 03:37:55;;;;;;;40.03;22.77;;;-2.70;99.90;;;;;;5049253;28;20036;-82
2022/01/24 03:40:21;;;;;;;42.53;21.83;;;-2.70;99.90;;;;;;5049141;28;20029;-82
2022/01/24 03:42:47;;;;;;;41.57;21.43;;;-2.70;99.90;;;;;;5050423;28;20393;-82
2022/01/24 03:45:12;;;;;;;42.77;22.37;;;-2.70;99.90;;;;;;5050399;28;20049;-78
2022/01/24 03:48:03;;;;;;;47.93;23.20;;;-2.70;99.90;;;;;;5052903;28;20060;-78
2022/01/24 03:50:28;;;;;;;40.97;21.20;;;-2.80;99.90;;;;;;5053466;28;20047;-79
2022/01/24 03:52:54;;;;;;;39.43;20.70;;;-2.80;99.90;;;;;;5052401;28;20501;-79
2022/01/24 03:55:19;;;;;;;47.73;24.27;;;-2.80;99.90;;;;;;5052866;28;20481;-79
2022/01/24 03:57:45;;;;;;;50.63;24.27;;;-2.90;99.90;;;;;;5053322;28;20037;-79
2022/01/24 04:00:11;;;;;;;43.77;22.03;;;-2.90;99.90;;;;;;5052100;28;20025;-82
2022/01/24 04:02:37;;;;;;;44.80;22.73;;;-2.90;99.90;;;;;;5050744;28;20032;-74
2022/01/24 04:05:03;;;;;;;46.37;23.00;;;-2.90;99.90;;;;;;5050230;28;20037;-80
2022/01/24 04:07:28;;;;;;;48.43;22.93;;;-2.90;99.90;;;;;;5049583;28;20080;-80
2022/01/24 04:09:54;;;;;;;40.00;22.30;;;-3.00;99.90;;;;;;5049875;28;20484;-80
2022/01/24 04:12:24;;;;;;;49.80;23.60;;;-3.00;99.90;;;;;;5049908;28;20139;-79
2022/01/24 04:22:19;;;;;;;44.80;23.60;;;-3.00;99.90;;;;;;5054318;28;20055;-80
2022/01/24 04:24:47;;;;;;;44.43;23.13;;;-3.00;99.90;;;;;;5053617;28;20029;-80
2022/01/24 04:27:14;;;;;;;47.50;22.47;;;-3.00;99.90;;;;;;5052169;28;20079;-80
2022/01/24 04:29:40;;;;;;;46.17;23.10;;;-3.00;99.90;;;;;;5053552;28;20037;-81
2022/01/24 04:32:06;;;;;;;43.40;23.80;;;-3.00;99.90;;;;;;5053948;28;20104;-81
2022/01/24 04:34:32;;;;;;;47.33;22.40;;;-3.00;99.90;;;;;;5053658;28;20033;-81
2022/01/24 04:36:58;;;;;;;45.90;22.23;;;-3.10;99.90;;;;;;5053750;28;20182;-81
2022/01/24 04:39:23;;;;;;;45.77;23.67;;;-3.10;99.90;;;;;;5052336;28;20033;-81
2022/01/24 04:41:53;;;;;;;46.00;23.27;;;-3.10;99.90;;;;;;5053835;28;20433;-81
2022/01/24 04:46:55;;;;;;;42.53;21.77;;;-3.00;99.90;;;;;;5053420;28;20075;-80
2022/01/24 04:54:46;;;;;;;41.77;22.17;;;-3.00;99.90;;;;;;5053164;28;20063;-80
2022/01/24 04:57:13;;;;;;;43.67;21.80;;;-3.10;99.90;;;;;;5051949;28;20061;-81
2022/01/24 04:59:40;;;;;;;37.43;20.73;;;-3.00;99.90;;;;;;5052841;28;20036;-81
2022/01/24 05:02:07;;;;;;;39.40;21.27;;;-3.10;99.90;;;;;;5053195;28;20029;-81
2022/01/24 05:04:32;;;;;;;42.53;22.13;;;-3.00;99.90;;;;;;5052853;28;20029;-81
2022/01/24 05:06:58;;;;;;;40.13;20.87;;;-3.10;99.90;;;;;;5052873;28;20394;-81
2022/01/24 05:09:25;;;;;;;40.83;23.27;;;-3.10;99.90;;;;;;5052730;28;20021;-81
2022/01/24 05:12:00;;;;;;;43.53;22.97;;;-3.10;99.90;;;;;;5052925;28;20363;-81
2022/01/24 05:25:22;;;;;;;54.10;27.43;;;-3.00;99.90;;;;;;5038868;28;20063;-81
2022/01/24 05:27:48;;;;;;;58.70;28.57;;;-3.00;99.90;;;;;;5051245;28;20450;-81
2022/01/24 05:30:15;;;;;;;52.50;28.23;;;-3.00;99.90;;;;;;5050476;28;20116;-74
2022/01/24 05:32:40;;;;;;;60.50;28.77;;;-3.00;99.90;;;;;;5055268;28;20508;-74
2022/01/24 05:35:06;;;;;;;53.57;28.40;;;-3.00;99.90;;;;;;5054126;28;20112;-74
2022/01/24 05:37:32;;;;;;;54.63;26.77;;;-3.00;99.90;;;;;;5055378;28;20029;-74
2022/01/24 05:39:58;;;;;;;52.57;26.47;;;-2.90;99.90;;;;;;5055203;28;20369;-74
2022/01/24 05:42:23;;;;;;;49.20;24.67;;;-2.90;99.90;;;;;;5050204;28;20049;-74
2022/01/24 05:44:49;;;;;;;45.37;24.30;;;-2.90;99.90;;;;;;5051084;28;20104;-81
2022/01/24 05:47:16;;;;;;;43.43;24.97;;;-2.90;99.90;;;;;;5051342;28;20020;-81
2022/01/24 05:49:42;;;;;;;48.63;25.50;;;-2.90;99.90;;;;;;5051127;28;20036;-81
2022/01/24 05:52:11;;;;;;;46.97;25.80;;;-2.90;99.90;;;;;;5050985;28;20168;-81
2022/01/24 05:54:38;;;;;;;45.17;24.73;;;-2.90;99.90;;;;;;5045400;28;20079;-80
2022/01/24 05:57:04;;;;;;;49.77;25.40;;;-2.90;99.90;;;;;;5049639;28;20033;-80
2022/01/24 05:59:30;;;;;;;37.40;21.63;;;-2.90;99.90;;;;;;5045225;28;20041;-80
2022/01/24 06:01:56;;;;;;;41.23;20.93;;;-2.80;99.90;;;;;;5030707;28;20087;-87
2022/01/24 06:04:22;;;;;;;38.90;22.00;;;-2.80;99.90;;;;;;5031393;28;20108;-81
2022/01/24 06:06:47;;;;;;;49.43;24.83;;;-2.90;99.90;;;;;;5038530;28;20036;-81
2022/01/24 06:09:13;;;;;;;46.00;23.17;;;-2.90;99.90;;;;;;5041516;28;20021;-80
2022/01/24 06:11:38;;;;;;;44.13;24.10;;;-2.90;99.90;;;;;;5051788;28;20504;-80
2022/01/24 06:14:04;;;;;;;44.20;23.70;;;-2.90;99.90;;;;;;5051606;28;20056;-81
2022/01/24 06:16:30;;;;;;;45.30;23.40;;;-3.00;99.90;;;;;;5052140;28;20029;-80
2022/01/24 06:18:55;;;;;;;44.63;24.70;;;-3.00;99.90;;;;;;5053205;28;20039;-66
2022/01/24 06:21:21;;;;;;;44.57;23.47;;;-3.00;99.90;;;;;;5052758;28;20367;-82
2022/01/24 06:23:47;;;;;;;47.70;24.23;;;-3.00;99.90;;;;;;5049749;28;20094;-82
2022/01/24 06:26:13;;;;;;;44.80;24.03;;;-3.00;99.90;;;;;;5049154;28;20116;-82
2022/01/24 06:28:39;;;;;;;43.63;24.27;;;-3.00;99.90;;;;;;5048800;28;20048;-82
2022/01/24 06:31:05;;;;;;;42.03;23.00;;;-3.00;99.90;;;;;;5048035;28;20029;-82
2022/01/24 06:33:31;;;;;;;44.17;22.50;;;-3.10;99.90;;;;;;5049497;28;20048;-82
2022/01/24 06:35:56;;;;;;;37.93;21.57;;;-3.00;99.90;;;;;;5052232;28;20032;-82
2022/01/24 06:38:25;;;;;;;43.67;24.17;;;-2.90;99.90;;;;;;5051010;28;20040;-80
2022/01/24 06:40:51;;;;;;;41.00;23.13;;;-2.90;99.90;;;;;;5048462;28;20465;-80
2022/01/24 06:43:19;;;;;;;39.73;23.23;;;-3.00;99.90;;;;;;5031233;28;20041;-79
2022/01/24 06:45:45;;;;;;;42.80;22.63;;;-3.00;99.90;;;;;;5032275;28;20126;-79
2022/01/24 06:48:11;;;;;;;44.63;23.70;;;-3.10;99.90;;;;;;5039254;28;20408;-82
2022/01/24 06:50:36;;;;;;;41.77;23.47;;;-3.10;99.90;;;;;;5034062;28;20044;-82
2022/01/24 06:53:02;;;;;;;41.23;22.00;;;-3.10;99.90;;;;;;5036334;28;20030;-76
2022/01/24 06:55:27;;;;;;;41.00;22.37;;;-3.10;99.90;;;;;;5034421;28;20033;-77
2022/01/24 06:57:53;;;;;;;39.33;22.77;;;-3.10;99.90;;;;;;5032446;28;20034;-77
2022/01/24 07:00:26;;;;;;;46.20;24.50;;;-3.10;99.90;;;;;;5030651;28;20040;-79
2022/01/24 07:02:55;;;;;;;47.43;25.10;;;-3.10;99.90;;;;;;5030175;28;20462;-79
2022/01/24 07:05:21;;;;;;;44.93;24.57;;;-3.10;99.90;;;;;;5028602;28;20131;-79
2022/01/24 07:07:48;;;;;;;44.10;22.63;;;-3.10;99.90;;;;;;5052445;28;20056;-79
2022/01/24 07:10:14;;;;;;;38.03;21.77;;;-3.10;99.90;;;;;;5048826;28;20017;-79
2022/01/24 07:12:40;;;;;;;45.03;22.97;;;-3.10;99.90;;;;;;5053352;28;20048;-74
2022/01/24 07:15:10;;;;;;;45.20;23.73;;;-3.10;99.90;;;;;;5053518;28;20074;-74
2022/01/24 07:20:16;;;;;;;40.47;23.00;;;-3.10;99.90;;;;;;5053630;28;20040;-74
2022/01/24 07:22:42;;;;;;;46.87;24.30;;;-3.10;99.90;;;;;;5052932;28;20029;-74
2022/01/24 07:25:23;;;;;;;48.23;24.40;;;-3.10;99.90;;;;;;5053253;28;20077;-76
2022/01/24 07:27:48;;;;;;;43.20;24.17;;;-3.00;99.90;;;;;;5053320;28;20330;-74
2022/01/24 07:30:14;;;;;;;46.30;24.27;;;-3.00;99.90;;;;;;5045725;28;20054;-81
2022/01/24 07:32:41;;;;;;;45.33;24.77;;;-3.00;99.90;;;;;;5045544;28;20025;-79
2022/01/24 07:35:07;;;;;;;44.40;23.77;;;-2.90;99.90;;;;;;5047043;28;20033;-79
2022/01/24 07:37:33;;;;;;;43.43;22.83;;;-2.90;99.90;;;;;;5045272;28;20435;-80
2022/01/24 07:39:59;;;;;;;48.27;24.40;;;-2.90;99.90;;;;;;5052827;28;20028;-73
2022/01/24 07:42:39;;;;;;;43.63;23.93;;;-2.90;99.90;;;;;;5051481;28;20473;-74
2022/01/24 07:45:05;;;;;;;44.50;22.80;;;-2.80;99.90;;;;;;5053968;28;20045;-73
2022/01/24 07:47:31;;;;;;;40.13;22.30;;;-2.80;99.90;;;;;;5052816;28;20020;-73
2022/01/24 07:49:56;;;;;;;44.43;24.33;;;-2.80;99.90;;;;;;5052989;28;20100;-73
2022/01/24 07:52:22;;;;;;;48.13;24.33;;;-2.70;99.90;;;;;;5051250;28;20540;-73
2022/01/24 07:54:47;;;;;;;56.07;22.67;;;-2.60;99.90;;;;;;5052843;28;20386;-73
2022/01/24 07:57:23;;;;;;;45.13;23.57;;;-2.50;99.90;;;;;;5053022;28;20453;-73
2022/01/24 07:59:49;;;;;;;41.60;21.57;;;-2.40;99.90;;;;;;5052792;28;20057;-73
2022/01/24 08:02:14;;;;;;;42.20;21.30;;;-2.30;99.90;;;;;;5051583;28;20056;-74
2022/01/24 08:04:40;;;;;;;35.37;21.03;;;-2.20;99.90;;;;;;5053056;28;20056;-73
2022/01/24 08:07:05;;;;;;;41.60;23.00;;;-2.00;99.90;;;;;;5052721;28;20037;-73
2022/01/24 08:09:31;;;;;;;40.17;22.40;;;-1.90;99.90;;;;;;5052816;28;20025;-73
2022/01/24 08:11:57;;;;;;;42.13;22.70;;;-1.90;99.90;;;;;;5052784;28;20203;-73
2022/01/24 08:14:22;;;;;;;39.30;22.67;;;-1.90;99.90;;;;;;5052720;28;20036;-73
2022/01/24 08:16:48;;;;;;;48.40;23.47;;;-1.80;99.90;;;;;;5051809;28;20029;-73
2022/01/24 08:19:13;;;;;;;43.07;23.27;;;-1.70;99.90;;;;;;5051332;28;20039;-73
2022/01/24 08:21:39;;;;;;;44.37;23.90;;;-1.60;99.90;;;;;;5051401;28;20120;-73
2022/01/24 08:24:08;;;;;;;41.10;23.13;;;-1.50;99.90;;;;;;5052392;28;20033;-74
2022/01/24 08:26:34;;;;;;;43.10;23.50;;;-1.50;99.90;;;;;;5052485;28;20032;-73
2022/01/24 08:29:00;;;;;;;49.43;27.87;;;-1.40;99.90;;;;;;5052415;28;20029;-77
2022/01/24 08:31:25;;;;;;;44.63;24.43;;;-1.40;99.90;;;;;;5052548;28;20044;-77
2022/01/24 08:33:51;;;;;;;40.60;23.90;;;-1.20;99.90;;;;;;5051887;28;20025;-77
2022/01/24 08:36:17;;;;;;;38.30;23.33;;;-1.10;99.90;;;;;;5050660;28;20025;-77
2022/01/24 08:38:46;;;;;;;34.07;21.60;;;-0.90;99.90;;;;;;5052073;28;20025;-76
2022/01/24 08:41:19;;;;;;;39.10;20.97;;;-0.80;99.90;;;;;;5052277;28;20025;-76
2022/01/24 08:46:13;;;;;;;35.73;21.80;;;-0.40;99.90;;;;;;5051782;28;20479;-77
2022/01/24 08:48:39;;;;;;;36.00;22.23;;;-0.40;99.90;;;;;;5050390;28;20029;-78
2022/01/24 08:51:05;;;;;;;35.87;22.07;;;-0.40;99.90;;;;;;5050507;28;20029;-79
2022/01/24 08:53:34;;;;;;;41.00;23.50;;;-0.40;99.90;;;;;;5050559;28;20040;-78
2022/01/24 08:56:01;;;;;;;35.70;20.60;;;-0.40;99.90;;;;;;5052080;28;20075;-78
2022/01/24 08:58:27;;;;;;;37.80;22.97;;;-0.20;99.90;;;;;;5051514;28;20466;-78
2022/01/24 09:00:53;;;;;;;34.80;22.57;;;-0.10;99.90;;;;;;5046990;28;20131;-79
2022/01/24 09:03:19;;;;;;;37.40;23.07;;;-0.10;99.90;;;;;;5051886;28;20033;-77
2022/01/24 09:05:47;;;;;;;36.67;20.80;;;-0.10;99.90;;;;;;5054379;28;20040;-78
2022/01/24 09:08:13;;;;;;;35.57;20.77;;;0.10;99.90;;;;;;5055378;28;20021;-77
2022/01/24 09:10:39;;;;;;;36.10;21.97;;;0.30;99.90;;;;;;5055426;28;20078;-78
2022/01/24 09:13:06;;;;;;;34.70;21.60;;;0.50;99.90;;;;;;5055708;28;20039;-76
2022/01/24 09:15:31;;;;;;;41.37;22.50;;;0.50;99.90;;;;;;5055734;28;20385;-77
2022/01/24 09:17:57;;;;;;;40.40;21.30;;;0.60;99.90;;;;;;5055592;28;20033;-77
2022/01/24 09:20:23;;;;;;;36.17;21.70;;;0.60;99.90;;;;;;5055619;28;20029;-77
2022/01/24 09:22:49;;;;;;;44.13;23.33;;;0.90;99.90;;;;;;5055437;28;20521;-77
2022/01/24 09:25:16;;;;;;;42.07;24.17;;;1.00;99.90;;;;;;5055102;28;20461;-78
2022/01/24 09:27:44;;;;;;;44.77;23.57;;;1.00;99.90;;;;;;5054076;28;20025;-77
2022/01/24 09:30:11;;;;;;;41.93;24.33;;;1.00;99.90;;;;;;5055209;28;20044;-76
2022/01/24 09:32:37;;;;;;;43.27;23.67;;;1.00;99.90;;;;;;5055359;28;20025;-78
2022/01/24 09:35:05;;;;;;;38.67;23.00;;;1.00;99.90;;;;;;5055036;28;20040;-78
2022/01/24 09:37:31;;;;;;;39.77;22.27;;;1.20;99.90;;;;;;5055228;28;20044;-77
2022/01/24 09:39:56;;;;;;;37.17;21.80;;;1.20;99.90;;;;;;5054407;28;20025;-78
2022/01/24 09:42:22;;;;;;;40.90;21.50;;;1.30;99.90;;;;;;5054946;28;20037;-77
2022/01/24 09:44:48;;;;;;;54.63;27.10;;;1.70;99.90;;;;;;5055020;28;20045;-77
2022/01/24 09:47:17;;;;;;;61.30;29.00;;;1.90;99.90;;;;;;5054715;28;20036;-77
2022/01/24 09:49:45;;;;;;;72.93;33.27;;;2.00;99.90;;;;;;5053351;28;20033;-78
2022/01/24 09:52:11;;;;;;;61.60;30.10;;;2.00;99.90;;;;;;5054642;28;20100;-77
2022/01/24 09:54:36;;;;;;;48.20;25.83;;;1.90;99.90;;;;;;5054574;28;20116;-77
2022/01/24 09:57:02;;;;;;;45.17;22.73;;;1.80;99.90;;;;;;5054379;28;20512;-78
2022/01/24 09:59:29;;;;;;;42.57;23.23;;;1.60;99.90;;;;;;5054212;28;20381;-77
2022/01/24 10:01:55;;;;;;;41.73;21.33;;;1.80;99.90;;;;;;5054203;28;20029;-78
2022/01/24 10:04:25;;;;;;;42.27;20.23;;;1.70;99.90;;;;;;5054506;28;20386;-78
2022/01/24 10:07:12;;;;;;;42.10;23.30;;;1.70;99.90;;;;;;5054314;28;20068;-78
2022/01/24 10:09:37;;;;;;;112.87;47.47;;;1.60;99.90;;;;;;5054180;28;20025;-78
2022/01/24 10:17:33;;;;;;;97.87;41.93;;;1.70;99.90;;;;;;5054543;28;20071;-79
2022/01/24 10:20:24;;;;;;;128.37;55.77;;;1.60;99.90;;;;;;5053869;28;20033;-79
2022/01/24 10:23:06;;;;;;;60.80;28.60;;;1.80;99.90;;;;;;5048795;28;20036;-73
2022/01/24 10:26:04;;;;;;;47.97;26.10;;;1.70;99.90;;;;;;5053338;28;20391;-74
2022/01/24 10:28:39;;;;;;;81.37;39.60;;;1.70;99.90;;;;;;5054115;28;20607;-74
2022/01/24 10:31:12;;;;;;;39.85;21.40;;;1.70;99.90;;;;;;5054306;28;20025;-74
2022/01/24 10:36:52;;;;;;;39.30;20.63;;;1.80;99.90;;;;;;5054700;28;20428;-73
2022/01/24 10:39:20;;;;;;;42.80;22.07;;;1.90;99.90;;;;;;5050399;28;20136;-79
2022/01/24 10:42:11;;;;;;;36.73;19.43;;;2.10;99.90;;;;;;5048870;28;20060;-80
2022/01/24 10:44:36;;;;;;;37.17;20.03;;;2.20;99.90;;;;;;5047597;28;20056;-80
2022/01/24 10:47:17;;;;;;;36.17;19.80;;;2.50;99.90;;;;;;5048154;28;20082;-80
2022/01/24 10:49:44;;;;;;;38.63;19.10;;;2.70;99.90;;;;;;5042778;28;20065;-81
2022/01/24 10:52:19;;;;;;;38.70;21.00;;;2.80;99.90;;;;;;5038867;28;20033;-80
2022/01/24 10:54:50;;;;;;;34.60;19.20;;;2.80;99.90;;;;;;5047833;28;20063;-81
2022/01/24 10:57:21;;;;;;;33.57;19.67;;;3.00;99.90;;;;;;5047822;28;20087;-81
2022/01/24 10:59:47;;;;;;;33.40;19.30;;;3.00;99.90;;;;;;5033718;28;20030;-80
2022/01/24 11:02:16;;;;;;;32.73;17.37;;;3.00;99.90;;;;;;5036309;28;20780;-80
2022/01/24 11:04:42;;;;;;;29.43;17.43;;;3.20;99.90;;;;;;5030308;28;20021;-81
2022/01/24 11:07:07;;;;;;;30.13;16.90;;;3.20;99.90;;;;;;5035018;28;20116;-81
2022/01/24 11:09:40;;;;;;;33.23;17.60;;;3.20;99.90;;;;;;5032434;28;20440;-80
2022/01/24 11:12:13;;;;;;;32.73;16.80;;;3.20;99.90;;;;;;5028097;28;20029;-79
2022/01/24 11:14:44;;;;;;;29.47;16.57;;;3.30;99.90;;;;;;5029751;28;20137;-74
2022/01/24 11:17:14;;;;;;;31.67;17.63;;;3.30;99.90;;;;;;5034398;28;20057;-73
2022/01/24 11:19:46;;;;;;;34.83;20.67;;;3.20;99.90;;;;;;5053249;28;20021;-73
2022/01/24 11:22:21;;;;;;;34.03;18.67;;;3.10;99.90;;;;;;5053549;28;20071;-73
2022/01/24 11:25:08;;;;;;;29.23;16.90;;;3.20;99.90;;;;;;5051915;28;20021;-74
2022/01/24 11:27:36;;;;;;;31.07;18.03;;;3.10;99.90;;;;;;5052456;28;20036;-74
2022/01/24 11:30:11;;;;;;;38.37;21.77;;;3.10;99.90;;;;;;5053242;28;20032;-74
2022/01/24 11:32:53;;;;;;;53.53;26.33;;;3.00;99.90;;;;;;5053114;28;20470;-74
2022/01/24 11:35:33;;;;;;;45.60;23.93;;;2.90;99.90;;;;;;5053268;28;20021;-74
2022/01/24 11:37:59;;;;;;;32.67;18.27;;;3.00;99.90;;;;;;5053434;28;20082;-75
2022/01/24 11:40:27;;;;;;;34.53;19.23;;;2.90;99.90;;;;;;5051568;28;20033;-74
2022/01/24 11:42:53;;;;;;;31.90;19.03;;;2.80;99.90;;;;;;5052999;28;20017;-74
2022/01/24 11:45:45;;;;;;;35.13;19.00;;;2.80;99.90;;;;;;5052784;28;20053;-74
2022/01/24 11:48:19;;;;;;;31.37;18.77;;;2.80;99.90;;;;;;5053073;28;20128;-74
2022/01/24 11:50:58;;;;;;;32.00;19.23;;;2.90;99.90;;;;;;5051466;28;20071;-73
2022/01/24 11:53:28;;;;;;;33.50;18.13;;;2.90;99.90;;;;;;5053228;28;20047;-74
2022/01/24 11:55:55;;;;;;;31.63;19.13;;;2.90;99.90;;;;;;5051286;28;20121;-74
2022/01/24 11:58:29;;;;;;;34.33;19.47;;;3.00;99.90;;;;;;5052871;28;20028;-74
2022/01/24 12:00:57;;;;;;;35.30;20.07;;;3.10;99.90;;;;;;5053164;28;20051;-74
2022/01/24 12:03:27;;;;;;;31.97;19.27;;;3.10;99.90;;;;;;5052647;28;20481;-74
2022/01/24 12:05:56;;;;;;;28.07;17.33;;;3.00;99.90;;;;;;5052868;28;20362;-74
2022/01/24 12:08:47;;;;;;;30.70;17.13;;;2.80;99.90;;;;;;5052685;28;20489;-74
2022/01/24 12:11:26;;;;;;;25.43;15.73;;;3.10;99.90;;;;;;5052918;28;20036;-74
2022/01/24 12:14:00;;;;;;;27.40;16.17;;;3.20;99.90;;;;;;5052585;28;20049;-74
2022/01/24 12:16:37;;;;;;;26.87;16.23;;;3.50;99.90;;;;;;5052554;28;20025;-74
2022/01/24 12:19:05;;;;;;;27.60;17.07;;;3.80;99.90;;;;;;5052493;28;20108;-74
2022/01/24 12:21:33;;;;;;;25.53;15.97;;;3.90;99.90;;;;;;5052648;28;20120;-73
2022/01/24 12:24:04;;;;;;;23.90;15.53;;;4.00;99.90;;;;;;5052721;28;20021;-75
2022/01/24 12:26:39;;;;;;;24.47;14.47;;;4.00;99.90;;;;;;5052350;28;20085;-74
2022/01/24 12:29:14;;;;;;;25.02;15.75;;;4.50;99.90;;;;;;5052915;28;20160;-74
2022/01/24 12:31:53;;;;;;;26.58;15.65;;;4.70;99.90;;;;;;5052685;28;20044;-75
2022/01/24 12:34:21;;;;;;;27.00;15.57;;;4.60;99.90;;;;;;5052673;28;20057;-74
2022/01/24 12:36:51;;;;;;;22.50;14.53;;;4.50;99.90;;;;;;5052310;28;20111;-74
2022/01/24 12:39:26;;;;;;;22.93;14.40;;;4.60;99.90;;;;;;5054467;28;20068;-75
2022/01/24 12:41:57;;;;;;;25.92;16.40;;;4.60;99.90;;;;;;5056781;28;20033;-75
2022/01/24 12:47:18;;;;;;;23.53;14.93;;;4.50;99.90;;;;;;5034925;28;20045;-75
2022/01/24 12:49:46;;;;;;;21.13;14.37;;;4.70;99.90;;;;;;5056236;28;20037;-75
2022/01/24 12:52:17;;;;;;;23.77;15.27;;;5.00;99.90;;;;;;5056312;28;20075;-75
2022/01/24 12:54:55;;;;;;;25.77;15.93;;;5.20;99.90;;;;;;5055029;28;20361;-75
2022/01/24 12:57:29;;;;;;;22.50;14.83;;;5.30;99.90;;;;;;5056350;28;20033;-74
2022/01/24 12:59:57;;;;;;;23.83;14.53;;;5.20;99.90;;;;;;5056572;28;20025;-74
2022/01/24 13:02:25;;;;;;;20.03;13.83;;;5.10;99.90;;;;;;5071725;28;20491;-74
2022/01/24 13:04:52;;;;;;;23.70;14.17;;;5.00;99.90;;;;;;5055865;28;20025;-78
2022/01/24 13:07:18;;;;;;;23.97;14.70;;;4.80;99.90;;;;;;5056021;28;20119;-78
2022/01/24 13:09:44;;;;;;;24.20;14.33;;;4.80;99.90;;;;;;5056288;28;20021;-78
2022/01/24 13:12:10;;;;;;;24.10;14.93;;;4.60;99.90;;;;;;5055930;28;20032;-77
2022/01/24 13:14:48;;;;;;;24.93;15.30;;;4.50;99.90;;;;;;5055967;28;20040;-78
2022/01/24 13:23:10;;;;;;;22.73;13.97;;;4.30;99.90;;;;;;5033761;28;20040;-77
2022/01/24 13:25:39;;;;;;;22.67;14.70;;;4.30;99.90;;;;;;5033940;28;20172;-77
2022/01/24 13:28:06;;;;;;;23.37;14.33;;;4.30;99.90;;;;;;5043931;28;20037;-77
2022/01/24 13:30:34;;;;;;;23.70;14.33;;;4.30;99.90;;;;;;5055640;28;20497;-76
2022/01/24 13:33:02;;;;;;;22.50;14.60;;;4.30;99.90;;;;;;5055618;28;20098;-77
2022/01/24 13:35:37;;;;;;;23.53;14.27;;;4.10;99.90;;;;;;5055568;28;20025;-77
2022/01/24 13:38:16;;;;;;;24.48;15.10;;;4.20;99.90;;;;;;5055223;28;20036;-77
2022/01/24 13:41:02;;;;;;;23.30;15.70;;;4.30;99.90;;;;;;5055455;28;20029;-77
2022/01/24 13:43:51;;;;;;;28.33;16.50;;;4.30;99.90;;;;;;5055480;28;20070;-78
2022/01/24 13:46:16;;;;;;;31.03;17.67;;;3.90;99.90;;;;;;5049399;28;20116;-76
2022/01/24 13:48:48;;;;;;;41.60;21.90;;;4.00;99.90;;;;;;5053821;28;20163;-77
2022/01/24 13:51:37;;;;;;;36.50;21.67;;;4.00;99.90;;;;;;5054411;28;20086;-77
2022/01/24 13:54:06;;;;;;;25.83;15.87;;;4.00;99.90;;;;;;5055378;28;20385;-75
2022/01/24 13:56:40;;;;;;;27.70;17.63;;;4.00;99.90;;;;;;5053861;28;20381;-74
2022/01/24 13:59:19;;;;;;;30.33;17.67;;;4.10;99.90;;;;;;5055155;28;20028;-73
2022/01/24 14:01:55;;;;;;;34.70;21.47;;;4.00;99.90;;;;;;5053682;28;20413;-73
2022/01/24 14:04:41;;;;;;;27.80;15.53;;;3.80;99.90;;;;;;5053919;28;20048;-74
2022/01/24 14:07:08;;;;;;;28.52;20.42;;;3.80;99.90;;;;;;5053765;28;20054;-74
2022/01/24 14:09:57;;;;;;;26.10;16.70;;;3.70;99.90;;;;;;5053841;28;20450;-73
2022/01/24 14:12:31;;;;;;;25.20;16.43;;;3.80;99.90;;;;;;5049768;28;20124;-74
2022/01/24 14:15:03;;;;;;;24.80;15.67;;;3.60;99.90;;;;;;5052996;28;20466;-74
2022/01/24 14:20:28;;;;;;;35.30;17.87;;;3.90;99.90;;;;;;5034826;28;20048;-77
2022/01/24 14:22:54;;;;;;;33.77;21.17;;;4.00;99.90;;;;;;5032988;28;20037;-79
2022/01/24 14:25:29;;;;;;;34.30;21.87;;;3.90;99.90;;;;;;5043875;28;20025;-79
2022/01/24 14:27:58;;;;;;;26.52;17.92;;;3.80;99.90;;;;;;5054418;28;20032;-78
2022/01/24 14:30:27;;;;;;;32.40;18.63;;;3.70;99.90;;;;;;5052971;28;20358;-79
2022/01/24 14:33:14;;;;;;;32.87;19.60;;;3.60;99.90;;;;;;5054184;28;20022;-79
2022/01/24 14:36:04;;;;;;;30.67;18.57;;;3.50;99.90;;;;;;5046062;28;20094;-78
2022/01/24 14:38:36;;;;;;;31.23;18.60;;;3.40;99.90;;;;;;5054391;28;20036;-78